createdAt,value
2018-05-27T00:00:59.305Z,97.40
2018-05-27T00:03:26.772Z,98.00
2018-05-27T00:05:54.239Z,97.60
2018-05-27T00:08:21.693Z,97.20
2018-05-27T00:10:49.141Z,97.50
2018-05-27T00:13:16.601Z,97.60
2018-05-27T00:15:44.042Z,97.60
2018-05-27T00:18:11.498Z,97.90
2018-05-27T00:20:38.961Z,98.60
2018-05-27T00:23:06.417Z,98.80
2018-05-27T00:25:33.870Z,98.70
2018-05-27T00:28:01.335Z,98.90
2018-05-27T00:30:28.842Z,99.00
2018-05-27T00:32:56.306Z,98.90
2018-05-27T00:35:23.756Z,99.00
2018-05-27T00:37:51.202Z,98.80
2018-05-27T00:40:18.659Z,98.60
2018-05-27T00:42:46.098Z,98.00
2018-05-27T00:45:13.561Z,98.00
2018-05-27T00:47:40.989Z,98.50
2018-05-27T00:50:08.448Z,98.50
2018-05-27T00:52:35.907Z,98.10
2018-05-27T00:55:03.372Z,97.90
2018-05-27T00:57:30.829Z,97.80
2018-05-27T00:59:58.281Z,98.10
2018-05-27T01:02:25.733Z,98.00
2018-05-27T01:04:53.205Z,98.00
2018-05-27T01:07:20.645Z,97.50
2018-05-27T01:09:48.118Z,97.60
2018-05-27T01:12:15.564Z,98.00
2018-05-27T01:14:43.025Z,97.60
2018-05-27T01:17:10.475Z,97.60
2018-05-27T01:19:38.000Z,97.60
2018-05-27T01:22:05.446Z,97.20
2018-05-27T01:24:32.924Z,97.40
2018-05-27T01:27:00.386Z,97.60
2018-05-27T01:29:27.860Z,97.50
2018-05-27T01:31:55.314Z,98.00
2018-05-27T01:34:22.777Z,97.50
2018-05-27T01:36:50.253Z,97.50
2018-05-27T01:39:17.715Z,97.90
2018-05-27T01:41:45.175Z,97.40
2018-05-27T01:44:12.625Z,97.30
2018-05-27T01:46:40.084Z,97.70
2018-05-27T01:49:07.546Z,97.90
2018-05-27T01:51:34.996Z,98.30
2018-05-27T01:54:02.439Z,98.30
2018-05-27T01:56:29.947Z,98.40
2018-05-27T01:58:57.412Z,97.80
2018-05-27T02:01:25.646Z,98.00
2018-05-27T02:03:53.107Z,98.00
2018-05-27T02:06:20.571Z,98.40
2018-05-27T02:08:48.032Z,98.70
2018-05-27T02:11:15.574Z,98.90
2018-05-27T02:13:43.033Z,98.10
2018-05-27T02:16:10.518Z,98.30
2018-05-27T02:18:37.985Z,98.30
2018-05-27T02:21:05.451Z,98.30
2018-05-27T02:23:32.899Z,98.40
2018-05-27T02:26:00.383Z,98.70
2018-05-27T02:28:27.851Z,98.80
2018-05-27T02:30:55.322Z,98.70
2018-05-27T02:33:22.761Z,98.80
2018-05-27T02:35:50.221Z,99.20
2018-05-27T02:38:17.681Z,99.20
2018-05-27T02:40:45.131Z,99.80
2018-05-27T02:43:12.584Z,99.50
2018-05-27T02:45:40.072Z,99.90
2018-05-27T02:48:07.524Z,99.90
2018-05-27T02:50:35.002Z,99.90
2018-05-27T02:53:02.468Z,99.90
2018-05-27T02:55:29.936Z,99.90
2018-05-27T02:57:57.426Z,99.70
2018-05-27T03:00:25.658Z,99.40
2018-05-27T03:02:53.119Z,99.30
2018-05-27T03:05:20.574Z,99.60
2018-05-27T03:07:48.043Z,99.90
2018-05-27T03:10:15.493Z,99.90
2018-05-27T03:12:42.954Z,99.90
2018-05-27T03:15:10.405Z,99.90
2018-05-27T03:17:37.869Z,99.90
2018-05-27T03:20:05.329Z,99.90
2018-05-27T03:22:32.791Z,99.90
2018-05-27T03:25:00.239Z,99.90
2018-05-27T03:27:28.601Z,99.90
2018-05-27T03:29:56.072Z,99.90
2018-05-27T03:32:24.292Z,99.90
2018-05-27T03:34:51.743Z,99.90
2018-05-27T03:37:19.219Z,99.90
2018-05-27T03:39:46.680Z,99.90
2018-05-27T03:42:14.154Z,99.90
2018-05-27T03:44:41.615Z,99.90
2018-05-27T03:47:09.094Z,99.90
2018-05-27T03:49:36.556Z,99.90
2018-05-27T03:52:04.018Z,99.90
2018-05-27T03:54:31.474Z,99.90
2018-05-27T03:56:58.958Z,99.90
2018-05-27T03:59:26.423Z,99.90
2018-05-27T04:01:53.888Z,99.90
2018-05-27T04:07:51.380Z,99.90
2018-05-27T04:10:18.842Z,99.90
2018-05-27T04:12:46.336Z,99.90
2018-05-27T04:15:13.955Z,99.90
2018-05-27T04:17:42.212Z,99.90
2018-05-27T04:20:09.685Z,99.90
2018-05-27T04:22:37.928Z,99.90
2018-05-27T04:25:05.407Z,99.90
2018-05-27T04:27:32.876Z,99.90
2018-05-27T04:30:00.339Z,99.90
2018-05-27T04:32:27.810Z,99.90
2018-05-27T04:34:55.257Z,99.90
2018-05-27T04:37:22.706Z,99.90
2018-05-27T04:39:50.176Z,99.90
2018-05-27T04:42:17.635Z,99.90
2018-05-27T04:44:45.101Z,99.90
2018-05-27T04:47:12.552Z,99.90
2018-05-27T04:49:40.026Z,99.90
2018-05-27T04:52:07.485Z,99.90
2018-05-27T04:54:34.970Z,99.90
2018-05-27T04:57:03.214Z,99.90
2018-05-27T04:59:30.695Z,99.90
2018-05-27T05:01:58.171Z,99.90
2018-05-27T05:04:25.626Z,99.90
2018-05-27T05:06:53.144Z,99.90
2018-05-27T05:09:20.604Z,99.90
2018-05-27T05:11:48.067Z,99.90
2018-05-27T05:14:15.538Z,99.90
2018-05-27T05:16:43.039Z,99.90
2018-05-27T05:19:10.503Z,99.90
2018-05-27T05:21:37.959Z,99.90
2018-05-27T05:24:06.270Z,99.90
2018-05-27T05:26:33.808Z,99.90
2018-05-27T05:29:01.300Z,99.90
2018-05-27T05:31:29.562Z,99.90
2018-05-27T05:33:57.028Z,99.90
2018-05-27T05:36:24.560Z,99.90
2018-05-27T05:38:52.760Z,99.90
2018-05-27T05:41:20.232Z,99.90
2018-05-27T05:43:47.706Z,99.90
2018-05-27T05:46:15.172Z,99.90
2018-05-27T05:48:43.409Z,99.90
2018-05-27T05:51:10.874Z,99.90
2018-05-27T05:53:38.333Z,99.60
2018-05-27T05:56:05.824Z,99.50
2018-05-27T05:58:33.279Z,99.80
2018-05-27T06:01:00.756Z,99.90
2018-05-27T06:03:28.991Z,99.70
2018-05-27T06:05:56.468Z,99.70
2018-05-27T06:08:23.962Z,99.90
2018-05-27T06:10:52.201Z,99.50
2018-05-27T06:13:19.659Z,99.50
2018-05-27T06:15:47.152Z,99.20
2018-05-27T06:18:14.615Z,98.90
2018-05-27T06:20:42.092Z,99.00
2018-05-27T06:23:10.314Z,99.00
2018-05-27T06:25:37.796Z,98.90
2018-05-27T06:28:06.243Z,98.90
2018-05-27T06:30:34.527Z,99.10
2018-05-27T06:33:01.989Z,99.10
2018-05-27T06:35:29.861Z,99.10
2018-05-27T06:37:57.333Z,99.10
2018-05-27T06:40:25.577Z,99.00
2018-05-27T06:42:53.039Z,99.00
2018-05-27T06:45:20.515Z,99.10
2018-05-27T06:47:48.760Z,99.30
2018-05-27T06:50:16.211Z,99.10
2018-05-27T06:52:43.670Z,99.10
2018-05-27T06:55:11.147Z,99.00
2018-05-27T06:57:38.609Z,98.90
2018-05-27T07:00:06.083Z,98.80
2018-05-27T07:02:33.567Z,98.80
2018-05-27T07:05:01.800Z,98.60
2018-05-27T07:07:29.272Z,98.60
2018-05-27T07:09:56.735Z,98.40
2018-05-27T07:12:24.216Z,98.40
2018-05-27T07:14:51.681Z,98.30
2018-05-27T07:17:19.148Z,98.10
2018-05-27T07:19:47.382Z,98.30
2018-05-27T07:22:14.860Z,97.90
2018-05-27T07:24:42.320Z,97.90
2018-05-27T07:27:09.792Z,97.90
2018-05-27T07:29:37.254Z,97.90
2018-05-27T07:32:04.717Z,97.90
2018-05-27T07:34:32.206Z,97.70
2018-05-27T07:36:59.629Z,97.70
2018-05-27T07:39:27.090Z,97.80
2018-05-27T07:41:54.565Z,97.60
2018-05-27T07:44:22.016Z,97.50
2018-05-27T07:46:49.479Z,97.50
2018-05-27T07:49:16.949Z,97.80
2018-05-27T07:51:44.426Z,97.50
2018-05-27T07:54:11.900Z,97.40
2018-05-27T07:56:39.376Z,97.40
2018-05-27T07:59:07.621Z,97.10
2018-05-27T08:01:35.100Z,97.10
2018-05-27T08:04:02.541Z,97.10
2018-05-27T08:06:30.015Z,98.40
2018-05-27T08:08:57.493Z,97.30
2018-05-27T08:11:24.971Z,97.20
2018-05-27T08:13:52.424Z,97.20
2018-05-27T08:16:20.649Z,97.40
2018-05-27T08:18:48.127Z,97.40
2018-05-27T08:21:15.597Z,97.80
2018-05-27T08:23:43.063Z,97.40
2018-05-27T08:26:10.516Z,97.50
2018-05-27T08:28:37.978Z,97.50
2018-05-27T08:33:40.072Z,97.30
2018-05-27T08:36:07.531Z,97.30
2018-05-27T08:38:35.003Z,96.80
2018-05-27T08:41:02.464Z,97.20
2018-05-27T08:43:29.956Z,97.80
2018-05-27T08:45:57.467Z,97.40
2018-05-27T08:48:24.935Z,97.10
2018-05-27T08:50:52.408Z,96.60
2018-05-27T08:53:19.879Z,96.70
2018-05-27T08:55:47.349Z,96.60
2018-05-27T08:58:14.837Z,97.30
2018-05-27T09:00:43.048Z,96.70
2018-05-27T09:03:11.287Z,96.20
2018-05-27T09:05:39.511Z,95.90
2018-05-27T09:08:06.986Z,95.60
2018-05-27T09:10:34.451Z,95.60
2018-05-27T09:13:01.925Z,95.40
2018-05-27T09:15:29.392Z,95.90
2018-05-27T09:17:56.868Z,96.00
2018-05-27T09:20:24.343Z,95.10
2018-05-27T09:22:51.809Z,94.80
2018-05-27T09:25:20.057Z,95.10
2018-05-27T09:27:47.509Z,95.10
2018-05-27T09:30:14.987Z,94.30
2018-05-27T09:32:42.442Z,94.50
2018-05-27T09:35:09.903Z,94.00
2018-05-27T09:37:37.373Z,94.30
2018-05-27T09:40:04.841Z,94.90
2018-05-27T09:42:32.301Z,93.40
2018-05-27T09:44:59.781Z,93.20
2018-05-27T09:47:27.258Z,92.00
2018-05-27T09:49:55.494Z,91.90
2018-05-27T09:52:22.977Z,91.90
2018-05-27T09:54:50.445Z,91.50
2018-05-27T09:57:17.898Z,91.70
2018-05-27T09:59:45.439Z,91.80
2018-05-27T10:02:12.910Z,92.40
2018-05-27T10:04:40.382Z,92.10
2018-05-27T10:07:07.836Z,91.60
2018-05-27T10:09:35.662Z,91.60
2018-05-27T10:12:03.121Z,91.90
2018-05-27T10:14:31.364Z,92.50
2018-05-27T10:16:58.812Z,92.50
2018-05-27T10:19:26.296Z,91.60
2018-05-27T10:21:53.749Z,91.10
2018-05-27T10:24:21.202Z,90.40
2018-05-27T10:26:48.682Z,89.10
2018-05-27T10:29:16.149Z,89.80
2018-05-27T10:31:43.636Z,90.00
2018-05-27T10:34:11.828Z,89.50
2018-05-27T10:36:39.294Z,89.50
2018-05-27T10:39:07.742Z,88.90
2018-05-27T10:41:35.199Z,89.30
2018-05-27T10:44:02.663Z,89.20
2018-05-27T10:46:30.128Z,85.60
2018-05-27T10:48:57.583Z,85.00
2018-05-27T10:51:25.047Z,87.00
2018-05-27T10:53:52.491Z,86.20
2018-05-27T10:56:19.951Z,87.40
2018-05-27T10:58:47.412Z,85.90
2018-05-27T11:01:14.895Z,85.50
2018-05-27T11:03:42.338Z,83.40
2018-05-27T11:06:09.799Z,83.50
2018-05-27T11:08:37.257Z,83.90
2018-05-27T11:11:04.733Z,85.40
2018-05-27T11:13:32.185Z,84.90
2018-05-27T11:15:59.733Z,84.10
2018-05-27T11:18:27.236Z,84.80
2018-05-27T11:20:54.719Z,82.90
2018-05-27T11:23:22.181Z,83.20
2018-05-27T11:25:50.429Z,83.80
2018-05-27T11:28:17.879Z,83.70
2018-05-27T11:30:45.340Z,83.20
2018-05-27T11:33:12.834Z,82.30
2018-05-27T11:35:40.292Z,84.40
2018-05-27T11:38:07.752Z,84.10
2018-05-27T11:40:35.192Z,81.20
2018-05-27T11:43:02.681Z,80.40
2018-05-27T11:45:30.131Z,79.40
2018-05-27T11:47:57.594Z,81.50
2018-05-27T11:50:26.436Z,81.10
2018-05-27T11:52:53.917Z,80.30
2018-05-27T11:55:21.418Z,81.10
2018-05-27T11:57:48.866Z,79.30
2018-05-27T12:00:16.338Z,79.70
2018-05-27T12:02:43.797Z,80.50
2018-05-27T12:05:11.280Z,79.70
2018-05-27T12:07:38.749Z,79.90
2018-05-27T12:10:06.193Z,77.60
2018-05-27T12:12:33.641Z,77.40
2018-05-27T12:15:01.105Z,80.00
2018-05-27T12:17:28.554Z,78.60
2018-05-27T12:19:55.989Z,77.20
2018-05-27T12:22:23.436Z,77.90
2018-05-27T12:24:51.674Z,76.70
2018-05-27T12:27:19.147Z,76.70
2018-05-27T12:29:46.668Z,72.80
2018-05-27T12:32:14.078Z,73.50
2018-05-27T12:34:41.530Z,75.40
2018-05-27T12:37:08.985Z,77.30
2018-05-27T12:39:36.432Z,75.80
2018-05-27T12:42:03.891Z,75.40
2018-05-27T12:44:31.372Z,74.70
2018-05-27T12:46:58.829Z,74.80
2018-05-27T12:49:26.281Z,75.40
2018-05-27T12:51:53.737Z,75.80
2018-05-27T12:54:21.212Z,74.60
2018-05-27T12:56:48.681Z,75.10
2018-05-27T12:59:16.143Z,72.40
2018-05-27T13:01:44.587Z,71.90
2018-05-27T13:04:12.056Z,73.40
2018-05-27T13:06:39.513Z,76.70
2018-05-27T13:09:06.979Z,75.40
2018-05-27T13:11:34.424Z,68.90
2018-05-27T13:14:02.658Z,68.00
2018-05-27T13:16:30.159Z,67.90
2018-05-27T13:18:57.575Z,68.10
2018-05-27T13:21:25.998Z,67.90
2018-05-27T13:23:54.239Z,66.00
2018-05-27T13:26:21.691Z,66.00
2018-05-27T13:28:49.152Z,67.60
2018-05-27T13:31:16.835Z,67.70
2018-05-27T13:33:44.304Z,67.00
2018-05-27T13:36:12.295Z,68.40
2018-05-27T13:38:39.819Z,68.30
2018-05-27T13:41:07.273Z,67.10
2018-05-27T13:43:34.747Z,68.50
2018-05-27T13:46:02.194Z,67.90
2018-05-27T13:48:29.679Z,70.10
2018-05-27T13:50:57.133Z,71.30
2018-05-27T13:53:24.586Z,67.70
2018-05-27T13:55:52.968Z,65.80
2018-05-27T13:58:20.423Z,67.30
2018-05-27T14:00:47.893Z,67.50
2018-05-27T14:03:15.349Z,68.40
2018-05-27T14:05:42.817Z,70.10
2018-05-27T14:08:11.235Z,71.00
2018-05-27T14:10:38.695Z,69.70
2018-05-27T14:13:06.164Z,69.80
2018-05-27T14:15:33.696Z,72.20
2018-05-27T14:18:02.038Z,72.60
2018-05-27T14:20:30.281Z,74.10
2018-05-27T14:22:57.753Z,73.90
2018-05-27T14:25:25.202Z,73.90
2018-05-27T14:27:54.873Z,73.40
2018-05-27T14:30:22.333Z,74.00
2018-05-27T14:32:50.546Z,75.60
2018-05-27T14:35:18.192Z,75.60
2018-05-27T14:37:45.666Z,77.00
2018-05-27T14:40:13.147Z,77.40
2018-05-27T14:42:40.600Z,77.70
2018-05-27T14:45:08.061Z,77.60
2018-05-27T14:47:35.510Z,78.30
2018-05-27T14:50:02.975Z,78.40
2018-05-27T14:52:30.434Z,79.00
2018-05-27T14:54:57.905Z,79.30
2018-05-27T14:57:25.388Z,79.20
2018-05-27T14:59:52.862Z,79.40
2018-05-27T15:02:20.337Z,79.50
2018-05-27T15:04:47.796Z,79.20
2018-05-27T15:07:15.245Z,79.70
2018-05-27T15:09:42.696Z,81.10
2018-05-27T15:12:10.257Z,80.80
2018-05-27T15:14:37.627Z,80.20
2018-05-27T15:17:05.089Z,80.90
2018-05-27T15:19:32.548Z,81.20
2018-05-27T15:22:00.015Z,81.70
2018-05-27T15:24:27.471Z,82.50
2018-05-27T15:26:54.990Z,82.00
2018-05-27T15:29:23.192Z,81.30
2018-05-27T15:31:51.446Z,81.10
2018-05-27T15:34:19.664Z,81.30
2018-05-27T15:36:47.106Z,81.30
2018-05-27T15:39:14.576Z,81.50
2018-05-27T15:41:42.029Z,81.30
2018-05-27T15:44:09.508Z,81.50
2018-05-27T15:46:36.987Z,81.10
2018-05-27T15:49:04.457Z,82.90
2018-05-27T15:51:31.940Z,82.40
2018-05-27T15:53:59.390Z,81.90
2018-05-27T15:56:26.845Z,82.80
2018-05-27T15:58:54.326Z,83.40
2018-05-27T16:01:21.790Z,85.50
2018-05-27T16:03:49.286Z,84.40
2018-05-27T16:06:16.735Z,83.60
2018-05-27T16:08:44.981Z,84.30
2018-05-27T16:11:12.453Z,85.00
2018-05-27T16:13:39.922Z,82.70
2018-05-27T16:16:07.369Z,85.00
2018-05-27T16:18:34.829Z,85.40
2018-05-27T16:21:02.285Z,87.30
2018-05-27T16:23:29.745Z,86.80
2018-05-27T16:25:57.200Z,84.00
2018-05-27T16:28:24.672Z,84.20
2018-05-27T16:30:52.110Z,83.90
2018-05-27T16:33:19.562Z,83.60
2018-05-27T16:35:47.024Z,83.50
2018-05-27T16:38:14.470Z,84.40
2018-05-27T16:40:42.766Z,82.00
2018-05-27T16:43:10.182Z,82.00
2018-05-27T16:45:37.647Z,82.20
2018-05-27T16:48:05.109Z,81.40
2018-05-27T16:50:32.576Z,81.30
2018-05-27T16:53:00.045Z,80.70
2018-05-27T16:55:27.561Z,81.50
2018-05-27T16:57:55.040Z,81.90
2018-05-27T17:00:22.511Z,81.90
2018-05-27T17:02:49.936Z,81.80
2018-05-27T17:05:17.399Z,82.10
2018-05-27T17:07:44.871Z,81.50
2018-05-27T17:10:13.118Z,82.90
2018-05-27T17:12:41.346Z,81.00
2018-05-27T17:15:08.836Z,81.10
2018-05-27T17:17:36.292Z,81.60
2018-05-27T17:20:03.752Z,81.80
2018-05-27T17:22:31.198Z,80.00
2018-05-27T17:24:58.669Z,78.70
2018-05-27T17:27:26.198Z,80.20
2018-05-27T17:29:53.677Z,81.40
2018-05-27T17:32:21.911Z,79.00
2018-05-27T17:34:49.374Z,79.00
2018-05-27T17:37:17.620Z,80.30
2018-05-27T17:39:45.106Z,80.20
2018-05-27T17:42:12.556Z,81.90
2018-05-27T17:44:40.023Z,80.30
2018-05-27T17:47:07.555Z,79.70
2018-05-27T17:49:34.998Z,82.10
2018-05-27T17:52:02.461Z,83.00
2018-05-27T17:54:30.691Z,83.50
2018-05-27T17:56:58.154Z,82.80
2018-05-27T17:59:25.628Z,82.50
2018-05-27T18:01:53.850Z,83.70
2018-05-27T18:04:21.326Z,83.70
2018-05-27T18:06:48.774Z,83.80
2018-05-27T18:09:17.004Z,84.10
2018-05-27T18:11:44.481Z,84.10
2018-05-27T18:14:12.692Z,86.00
2018-05-27T18:16:40.159Z,86.00
2018-05-27T18:19:07.624Z,86.00
2018-05-27T18:21:35.102Z,86.30
2018-05-27T18:24:02.559Z,87.10
2018-05-27T18:26:30.011Z,87.10
2018-05-27T18:28:57.467Z,87.60
2018-05-27T18:31:25.034Z,89.00
2018-05-27T18:33:52.489Z,89.90
2018-05-27T18:36:19.974Z,90.00
2018-05-27T18:38:47.453Z,90.60
2018-05-27T18:41:14.911Z,90.70
2018-05-27T18:43:42.370Z,91.20
2018-05-27T18:46:09.837Z,91.20
2018-05-27T18:48:37.292Z,91.20
2018-05-27T18:51:06.678Z,90.90
2018-05-27T18:53:34.124Z,90.90
2018-05-27T18:56:01.582Z,91.10
2018-05-27T18:58:30.777Z,91.00
2018-05-27T19:00:59.032Z,91.40
2018-05-27T19:03:26.479Z,91.40
2018-05-27T19:05:53.941Z,91.80
2018-05-27T19:08:22.373Z,92.50
2018-05-27T19:10:49.863Z,93.10
2018-05-27T19:13:17.337Z,93.60
2018-05-27T19:15:44.807Z,93.70
2018-05-27T19:18:12.254Z,93.70
2018-05-27T19:20:39.709Z,93.90
2018-05-27T19:23:07.167Z,94.00
2018-05-27T19:25:34.624Z,94.00
2018-05-27T19:28:02.070Z,94.40
2018-05-27T19:30:29.553Z,94.50
2018-05-27T19:32:57.013Z,94.90
2018-05-27T19:35:24.551Z,95.00
2018-05-27T19:37:52.781Z,95.40
2018-05-27T19:40:20.254Z,95.40
2018-05-27T19:42:47.726Z,95.40
2018-05-27T19:45:15.195Z,95.70
2018-05-27T19:47:42.676Z,95.70
2018-05-27T19:50:10.937Z,95.70
2018-05-27T19:52:38.446Z,95.70
2018-05-27T19:55:05.920Z,96.00
2018-05-27T19:57:33.381Z,96.50
2018-05-27T20:00:00.810Z,97.20
2018-05-27T20:02:29.049Z,97.50
2018-05-27T20:04:56.508Z,97.40
2018-05-27T20:07:24.022Z,97.50
2018-05-27T20:09:52.302Z,97.70
2018-05-27T20:12:19.724Z,97.70
2018-05-27T20:14:47.205Z,96.90
2018-05-27T20:17:14.656Z,96.60
2018-05-27T20:19:42.125Z,96.50
2018-05-27T20:22:09.589Z,96.30
2018-05-27T20:24:37.051Z,96.20
2018-05-27T20:27:04.531Z,96.40
2018-05-27T20:29:32.759Z,96.90
2018-05-27T20:32:00.231Z,96.90
2018-05-27T20:34:27.708Z,97.30
2018-05-27T20:36:55.165Z,97.40
2018-05-27T20:42:13.753Z,97.40
2018-05-27T20:44:41.200Z,97.60
2018-05-27T20:47:08.653Z,97.70
2018-05-27T20:49:36.140Z,97.80
2018-05-27T20:52:03.598Z,97.30
2018-05-27T20:54:31.079Z,97.50
2018-05-27T20:56:58.608Z,96.90
2018-05-27T20:59:26.081Z,96.90
2018-05-27T21:01:53.535Z,97.20
2018-05-27T21:04:20.980Z,97.60
2018-05-27T21:06:48.432Z,97.40
2018-05-27T21:09:15.891Z,97.40
2018-05-27T21:11:44.110Z,97.50
2018-05-27T21:14:11.597Z,97.50
2018-05-27T21:16:39.812Z,97.30
2018-05-27T21:19:07.303Z,97.30
2018-05-27T21:21:35.519Z,97.70
2018-05-27T21:24:03.743Z,97.90
2018-05-27T21:26:31.197Z,97.80
2018-05-27T21:28:58.649Z,98.10
2018-05-27T21:31:26.109Z,97.80
2018-05-27T21:33:53.576Z,97.60
2018-05-27T21:36:21.044Z,97.40
2018-05-27T21:38:48.526Z,97.70
2018-05-27T21:41:15.996Z,98.00
2018-05-27T21:43:43.471Z,98.00
2018-05-27T21:46:10.936Z,98.10
2018-05-27T21:48:38.355Z,98.10
2018-05-27T21:51:05.823Z,98.20
2018-05-27T21:53:33.287Z,98.50
2018-05-27T21:56:00.815Z,98.10
2018-05-27T21:58:29.076Z,98.10
2018-05-27T22:00:56.576Z,98.10
2018-05-27T22:03:24.791Z,98.30
2018-05-27T22:05:52.265Z,98.30
2018-05-27T22:08:19.777Z,98.50
2018-05-27T22:10:48.009Z,98.80
2018-05-27T22:13:15.469Z,98.80
2018-05-27T22:15:42.959Z,99.00
2018-05-27T22:18:11.198Z,99.40
2018-05-27T22:20:38.652Z,99.30
2018-05-27T22:23:06.118Z,99.50
2018-05-27T22:25:33.580Z,99.60
2018-05-27T22:28:01.048Z,99.50
2018-05-27T22:30:28.535Z,99.60
2018-05-27T22:32:56.000Z,99.80
2018-05-27T22:35:23.474Z,99.90
2018-05-27T22:37:50.931Z,99.90
2018-05-27T22:40:18.398Z,99.90
2018-05-27T22:42:45.873Z,99.70
2018-05-27T22:45:14.279Z,99.50
2018-05-27T22:47:41.735Z,99.50
2018-05-27T22:50:09.212Z,99.90
2018-05-27T22:52:37.451Z,99.90
2018-05-27T22:55:05.689Z,99.90
2018-05-27T22:57:33.149Z,99.90
2018-05-27T23:00:00.595Z,99.90
2018-05-27T23:02:28.065Z,99.90
2018-05-27T23:04:55.528Z,99.90
2018-05-27T23:07:23.012Z,99.90
2018-05-27T23:09:50.433Z,99.90
2018-05-27T23:12:17.880Z,99.90
2018-05-27T23:14:45.324Z,99.90
2018-05-27T23:17:12.802Z,99.70
2018-05-27T23:19:40.245Z,99.90
2018-05-27T23:22:07.691Z,99.90
2018-05-27T23:24:35.162Z,99.90
2018-05-27T23:27:02.624Z,99.80
2018-05-27T23:29:30.074Z,99.80
2018-05-27T23:31:57.535Z,99.60
2018-05-27T23:34:24.988Z,99.80
2018-05-27T23:36:52.514Z,99.90
2018-05-27T23:39:19.917Z,99.90
2018-05-27T23:41:47.388Z,99.90
2018-05-27T23:44:14.842Z,99.90
2018-05-27T23:46:42.284Z,99.90
2018-05-27T23:49:09.742Z,99.90
2018-05-27T23:51:37.197Z,99.90
2018-05-27T23:54:04.661Z,99.90
2018-05-27T23:56:32.105Z,99.90
2018-05-27T23:58:59.560Z,99.90
